createdAt,value
2023-01-29T00:01:00.001Z,100186.25
2023-01-29T00:03:46.943Z,100188.81
2023-01-29T00:06:33.813Z,100184.41
2023-01-29T00:09:20.713Z,100171.28
2023-01-29T00:12:07.926Z,100173.06
2023-01-29T00:14:55.019Z,100180.94
2023-01-29T00:17:41.885Z,100184.41
2023-01-29T00:20:29.604Z,100173.13
2023-01-29T00:23:16.418Z,100166.97
2023-01-29T00:26:03.629Z,100187.94
2023-01-29T00:28:50.686Z,100168.00
2023-01-29T00:31:43.888Z,100181.00
2023-01-29T00:34:30.972Z,100178.38
2023-01-29T00:37:17.929Z,100181.00
2023-01-29T00:40:04.884Z,100180.13
2023-01-29T00:42:51.439Z,100174.00
2023-01-29T00:45:38.417Z,100163.56
2023-01-29T00:48:26.552Z,100165.25
2023-01-29T00:51:13.423Z,100173.13
2023-01-29T00:54:00.831Z,100163.59
2023-01-29T00:56:49.819Z,100144.50
2023-01-29T00:59:37.619Z,100158.25
2023-01-29T01:02:23.049Z,100164.34
2023-01-29T01:05:10.312Z,100154.75
2023-01-29T01:07:57.293Z,100153.84
2023-01-29T01:10:51.394Z,100146.03
2023-01-29T01:13:38.241Z,100155.59
2023-01-29T01:16:37.040Z,100109.97
2023-01-29T01:19:25.029Z,100147.03
2023-01-29T01:22:12.117Z,100166.09
2023-01-29T01:24:59.173Z,100160.00
2023-01-29T01:27:46.225Z,100160.88
2023-01-29T01:30:35.818Z,100167.91
2023-01-29T01:33:22.957Z,100177.53
2023-01-29T01:36:09.841Z,100175.84
2023-01-29T01:38:57.943Z,100178.47
2023-01-29T01:41:45.126Z,100180.25
2023-01-29T01:45:09.706Z,100172.38
2023-01-29T01:48:08.247Z,100169.81
2023-01-29T01:51:09.433Z,100155.13
2023-01-29T01:53:58.840Z,100161.06
2023-01-29T01:56:51.825Z,100155.81
2023-01-29T01:59:39.213Z,100150.63
2023-01-29T02:02:26.485Z,100165.47
2023-01-29T02:05:12.100Z,100162.84
2023-01-29T02:08:04.322Z,100167.22
2023-01-29T02:10:59.165Z,100171.59
2023-01-29T02:13:47.045Z,100155.16
2023-01-29T02:16:34.036Z,100169.91
2023-01-29T02:19:27.104Z,100155.03
2023-01-29T02:22:44.320Z,100153.31
2023-01-29T02:25:51.268Z,100153.31
2023-01-29T02:29:05.677Z,100150.72
2023-01-29T02:32:04.021Z,100153.31
2023-01-29T02:35:05.495Z,100157.69
2023-01-29T02:38:05.510Z,100144.59
2023-01-29T02:41:06.947Z,100151.63
2023-01-29T02:44:26.740Z,100145.50
2023-01-29T02:47:17.961Z,100151.63
2023-01-29T02:50:12.886Z,100144.69
2023-01-29T02:53:18.172Z,100129.84
2023-01-29T02:56:11.826Z,100133.31
2023-01-29T02:59:04.143Z,100118.59
2023-01-29T03:01:55.991Z,100138.56
2023-01-29T03:04:49.391Z,100130.69
2023-01-29T03:08:03.584Z,100135.06
2023-01-29T03:11:02.436Z,100136.09
2023-01-29T03:14:01.411Z,100129.94
2023-01-29T03:17:03.353Z,100135.88
2023-01-29T03:20:04.417Z,100128.06
2023-01-29T03:22:52.917Z,100079.88
2023-01-29T03:25:41.833Z,100123.59
2023-01-29T03:28:31.264Z,100112.28
2023-01-29T03:31:22.329Z,100116.66
2023-01-29T03:34:28.299Z,100116.66
2023-01-29T03:37:20.150Z,100105.28
2023-01-29T03:40:07.406Z,100069.22
2023-01-29T03:43:02.594Z,100098.34
2023-01-29T03:46:15.232Z,100083.47
2023-01-29T03:49:14.762Z,100094.81
2023-01-29T03:52:19.759Z,100092.22
2023-01-29T03:55:24.168Z,100090.44
2023-01-29T03:58:40.633Z,100080.84
2023-01-29T04:01:34.771Z,100086.09
2023-01-29T04:04:29.262Z,100071.19
2023-01-29T04:07:23.824Z,100051.50
2023-01-29T04:10:23.022Z,100071.19
2023-01-29T04:13:22.700Z,100023.84
2023-01-29T04:16:16.117Z,100073.78
2023-01-29T04:19:34.599Z,100067.69
2023-01-29T04:22:26.515Z,100022.84
2023-01-29T04:25:14.041Z,99991.78
2023-01-29T04:28:03.890Z,100045.78
2023-01-29T04:31:06.253Z,100045.75
2023-01-29T04:34:12.871Z,100033.50
2023-01-29T04:37:15.001Z,100040.44
2023-01-29T04:40:14.789Z,100032.63
2023-01-29T04:43:11.374Z,100026.47
2023-01-29T04:46:20.254Z,100018.59
2023-01-29T04:49:45.687Z,100009.91
2023-01-29T04:52:53.787Z,100015.09
2023-01-29T04:55:49.912Z,100022.03
2023-01-29T04:59:14.051Z,100019.41
2023-01-29T05:02:01.334Z,100024.66
2023-01-29T05:04:51.681Z,100008.94
2023-01-29T05:07:40.923Z,100007.19
2023-01-29T05:10:30.137Z,100005.44
2023-01-29T05:13:21.454Z,100002.81
2023-01-29T05:16:29.917Z,100003.69
2023-01-29T05:19:17.072Z,100008.88
2023-01-29T05:22:07.483Z,100014.19
2023-01-29T05:24:56.142Z,99995.91
2023-01-29T05:27:50.480Z,99989.75
2023-01-29T05:30:37.488Z,99992.41
2023-01-29T05:33:30.896Z,99988.91
2023-01-29T05:36:20.677Z,99981.09
2023-01-29T05:39:07.473Z,99985.41
2023-01-29T05:41:54.532Z,99949.13
2023-01-29T05:44:41.434Z,99960.91
2023-01-29T05:47:28.521Z,99957.38
2023-01-29T05:50:15.690Z,99957.34
2023-01-29T05:53:02.904Z,99948.59
2023-01-29T05:55:30.363Z,99955.56
2023-01-29T05:57:57.258Z,99952.94
2023-01-29T06:00:24.449Z,99952.91
2023-01-29T06:02:51.527Z,99931.94
2023-01-29T06:05:18.578Z,99939.81
2023-01-29T06:07:45.661Z,99936.22
2023-01-29T06:10:16.013Z,99934.44
2023-01-29T06:12:44.198Z,99934.44
2023-01-29T06:15:12.019Z,99915.22
2023-01-29T06:17:39.025Z,99890.38
2023-01-29T06:20:06.498Z,99917.78
2023-01-29T06:22:33.745Z,99915.16
2023-01-29T06:25:00.683Z,99909.00
2023-01-29T06:27:27.579Z,99903.72
2023-01-29T06:29:54.619Z,99878.09
2023-01-29T06:32:21.501Z,99915.94
2023-01-29T06:34:49.770Z,99909.78
2023-01-29T06:37:16.769Z,99834.22
2023-01-29T06:39:44.033Z,99902.81
2023-01-29T06:42:11.237Z,99889.66
2023-01-29T06:44:38.161Z,99893.06
2023-01-29T06:47:05.330Z,99890.38
2023-01-29T06:49:32.350Z,99885.13
2023-01-29T06:51:59.319Z,99874.66
2023-01-29T06:54:26.287Z,99852.94
2023-01-29T06:56:53.289Z,99782.50
2023-01-29T06:59:20.220Z,99848.41
2023-01-29T07:01:47.179Z,99847.53
2023-01-29T07:04:14.165Z,99837.88
2023-01-29T07:07:00.999Z,99830.88
2023-01-29T07:09:47.928Z,99830.88
2023-01-29T07:12:34.841Z,99827.31
2023-01-29T07:15:22.056Z,99824.69
2023-01-29T07:18:22.331Z,99825.56
2023-01-29T07:21:09.301Z,99813.31
2023-01-29T07:23:56.485Z,99803.03
2023-01-29T07:26:43.464Z,99801.94
2023-01-29T07:29:30.654Z,99799.31
2023-01-29T07:32:17.671Z,99795.94
2023-01-29T07:35:04.624Z,99798.47
2023-01-29T07:37:31.585Z,99793.22
2023-01-29T07:39:58.759Z,99790.69
2023-01-29T07:42:45.834Z,99779.38
2023-01-29T07:45:32.958Z,99777.53
2023-01-29T07:48:20.084Z,99774.22
2023-01-29T07:51:14.536Z,99755.88
2023-01-29T07:54:01.512Z,99760.94
2023-01-29T07:56:28.430Z,99740.25
2023-01-29T07:58:56.060Z,99748.66
2023-01-29T08:01:23.495Z,99721.19
2023-01-29T08:03:51.394Z,99744.28
2023-01-29T08:06:19.333Z,99735.53
2023-01-29T08:08:46.549Z,99739.91
2023-01-29T08:11:13.473Z,99732.09
2023-01-29T08:13:40.539Z,99727.69
2023-01-29T08:16:08.081Z,99722.44
2023-01-29T08:18:37.650Z,99714.78
2023-01-29T08:21:04.750Z,99688.03
2023-01-29T08:23:31.878Z,99707.56
2023-01-29T08:25:58.903Z,99708.47
2023-01-29T08:28:45.964Z,99714.50
2023-01-29T08:31:37.592Z,99686.09
2023-01-29T08:34:24.419Z,99713.63
2023-01-29T08:37:11.336Z,99698.72
2023-01-29T08:39:38.284Z,99695.25
2023-01-29T08:42:05.216Z,99697.88
2023-01-29T08:44:32.155Z,99690.84
2023-01-29T08:46:59.232Z,99685.59
2023-01-29T08:49:26.474Z,99687.31
2023-01-29T08:51:56.817Z,99680.28
2023-01-29T08:54:44.328Z,99664.59
2023-01-29T08:57:31.321Z,99633.00
2023-01-29T09:00:18.645Z,99667.97
2023-01-29T09:03:05.828Z,99660.16
2023-01-29T09:05:52.919Z,99661.16
2023-01-29T09:08:39.961Z,99656.56
2023-01-29T09:11:27.286Z,99649.56
2023-01-29T09:14:14.224Z,99652.13
2023-01-29T09:17:01.214Z,99651.25
2023-01-29T09:19:48.100Z,99655.59
2023-01-29T09:22:35.157Z,99594.81
2023-01-29T09:25:22.105Z,99644.19
2023-01-29T09:28:09.096Z,99643.25
2023-01-29T09:30:56.190Z,99635.38
2023-01-29T09:33:43.337Z,99633.63
2023-01-29T09:36:30.445Z,99623.13
2023-01-29T09:39:17.295Z,99623.06
2023-01-29T09:42:12.098Z,99616.06
2023-01-29T09:45:17.465Z,99615.16
2023-01-29T09:48:04.630Z,99596.91
2023-01-29T09:50:57.894Z,99595.84
2023-01-29T09:53:56.023Z,99594.09
2023-01-29T09:56:43.493Z,99593.19
2023-01-29T09:59:33.143Z,99594.97
2023-01-29T10:02:29.437Z,99583.53
2023-01-29T10:05:27.923Z,99578.28
2023-01-29T10:08:39.241Z,99576.59
2023-01-29T10:11:44.217Z,99567.78
2023-01-29T10:14:43.285Z,99562.53
2023-01-29T10:17:53.081Z,99545.03
2023-01-29T10:21:07.839Z,99545.03
2023-01-29T10:23:58.398Z,99526.00
2023-01-29T10:26:48.480Z,99522.28
2023-01-29T10:29:39.316Z,99511.78
2023-01-29T10:32:26.384Z,99505.63
2023-01-29T10:35:40.816Z,99494.19
2023-01-29T10:38:46.478Z,99486.38
2023-01-29T10:41:42.499Z,99493.31
2023-01-29T10:44:35.294Z,99485.44
2023-01-29T10:47:43.715Z,99470.50
2023-01-29T10:50:59.405Z,99460.88
2023-01-29T10:54:11.241Z,99455.63
2023-01-29T10:57:30.380Z,99445.13
2023-01-29T11:00:45.442Z,99431.09
2023-01-29T11:03:41.822Z,99400.03
2023-01-29T11:06:45.321Z,99410.03
2023-01-29T11:09:42.273Z,99398.81
2023-01-29T11:12:35.430Z,99392.44
2023-01-29T11:15:33.064Z,99385.44
2023-01-29T11:18:34.436Z,99375.78
2023-01-29T11:21:23.697Z,99358.34
2023-01-29T11:24:24.681Z,99352.94
2023-01-29T11:27:15.677Z,99294.00
2023-01-29T11:30:10.439Z,99287.56
2023-01-29T11:32:57.526Z,99323.09
2023-01-29T11:35:45.757Z,99319.56
2023-01-29T11:38:43.598Z,99242.56
2023-01-29T11:41:39.834Z,99305.50
2023-01-29T11:44:39.179Z,99308.13
2023-01-29T11:47:46.792Z,99290.63
2023-01-29T11:50:22.205Z,99267.22
2023-01-29T11:52:49.341Z,99267.81
2023-01-29T11:55:22.377Z,99266.94
2023-01-29T11:58:02.200Z,99259.88
2023-01-29T12:00:33.558Z,99261.59
2023-01-29T12:03:12.546Z,99261.59
2023-01-29T12:05:44.595Z,99259.81
2023-01-29T12:08:18.165Z,99250.19
2023-01-29T12:10:45.149Z,99242.38
2023-01-29T12:13:21.219Z,99231.81
2023-01-29T12:15:49.248Z,99175.63
2023-01-29T12:18:38.459Z,99209.13
2023-01-29T12:21:14.389Z,99203.00
2023-01-29T12:24:02.363Z,99184.63
2023-01-29T12:26:45.838Z,99175.00
2023-01-29T12:29:41.297Z,99173.19
2023-01-29T12:32:43.387Z,99171.44
2023-01-29T12:35:28.567Z,99168.88
2023-01-29T12:38:16.037Z,99152.34
2023-01-29T12:41:21.737Z,99163.63
2023-01-29T12:43:54.868Z,99156.69
2023-01-29T12:46:25.173Z,99134.84
2023-01-29T12:48:54.453Z,99083.72
2023-01-29T12:51:28.223Z,99079.53
2023-01-29T12:54:09.490Z,99126.03
2023-01-29T12:56:54.205Z,99124.25
2023-01-29T12:59:36.751Z,99120.78
2023-01-29T13:02:18.796Z,99106.81
2023-01-29T13:04:52.940Z,99091.97
2023-01-29T13:07:33.346Z,99098.00
2023-01-29T13:10:23.595Z,99076.16
2023-01-29T13:13:15.732Z,99058.88
2023-01-29T13:15:44.558Z,99065.66
2023-01-29T13:18:31.067Z,99069.22
2023-01-29T13:20:59.659Z,99046.34
2023-01-29T13:23:43.831Z,99063.09
2023-01-29T13:26:13.820Z,99063.97
2023-01-29T13:28:45.272Z,99058.78
2023-01-29T13:31:28.985Z,99051.84
2023-01-29T13:33:56.181Z,99041.34
2023-01-29T13:36:29.956Z,99032.63
2023-01-29T13:39:26.320Z,99036.19
2023-01-29T13:42:15.049Z,99009.09
2023-01-29T13:45:07.345Z,99017.88
2023-01-29T13:47:58.239Z,98984.22
2023-01-29T13:51:01.216Z,98983.94
2023-01-29T13:53:54.862Z,98973.44
2023-01-29T13:56:53.998Z,98967.31
2023-01-29T13:59:44.400Z,98958.59
2023-01-29T14:03:00.658Z,98948.94
2023-01-29T14:05:50.329Z,98951.56
2023-01-29T14:08:55.588Z,98945.47
2023-01-29T14:11:54.612Z,98948.00
2023-01-29T14:15:09.844Z,98937.59
2023-01-29T14:17:58.035Z,98939.31
2023-01-29T14:20:45.550Z,98941.16
2023-01-29T14:23:18.851Z,98943.63
2023-01-29T14:25:46.714Z,98931.38
2023-01-29T14:28:19.131Z,98910.13
2023-01-29T14:30:49.514Z,98925.25
2023-01-29T14:33:41.867Z,98915.69
2023-01-29T14:36:14.592Z,98915.63
2023-01-29T14:38:48.657Z,98914.75
2023-01-29T14:41:27.470Z,98907.75
2023-01-29T14:44:52.709Z,98899.88
2023-01-29T14:48:02.383Z,98890.22
2023-01-29T14:50:49.212Z,98857.59
2023-01-29T14:54:12.821Z,98844.06
2023-01-29T14:57:16.377Z,98849.84
2023-01-29T15:00:06.400Z,98841.91
2023-01-29T15:02:43.122Z,98832.25
2023-01-29T15:05:28.949Z,98828.72
2023-01-29T15:08:24.756Z,98821.66
2023-01-29T15:11:14.147Z,98814.56
2023-01-29T15:14:26.728Z,98804.91
2023-01-29T15:17:05.982Z,98787.38
2023-01-29T15:19:37.077Z,98781.22
2023-01-29T15:22:12.894Z,98762.25
2023-01-29T15:24:41.523Z,98762.06
2023-01-29T15:27:17.409Z,98752.19
2023-01-29T15:29:53.206Z,98712.09
2023-01-29T15:32:50.796Z,98721.44
2023-01-29T15:35:42.946Z,98712.81
2023-01-29T15:38:37.470Z,98704.78
2023-01-29T15:41:40.256Z,98681.31
2023-01-29T15:44:39.021Z,98678.44
2023-01-29T15:47:25.999Z,98651.00
2023-01-29T15:50:13.331Z,98634.66
2023-01-29T15:53:00.526Z,98637.28
2023-01-29T15:55:47.807Z,98633.75
2023-01-29T15:58:44.513Z,98625.78
2023-01-29T16:01:31.789Z,98605.78
2023-01-29T16:04:23.455Z,98598.69
2023-01-29T16:07:13.080Z,98584.63
2023-01-29T16:10:00.549Z,98569.81
2023-01-29T16:12:48.618Z,98567.09
2023-01-29T16:16:01.491Z,98556.69
2023-01-29T16:19:00.399Z,98555.78
2023-01-29T16:21:57.922Z,98557.53
2023-01-29T16:24:45.405Z,98539.16
2023-01-29T16:27:34.441Z,98534.78
2023-01-29T16:30:21.670Z,98526.03
2023-01-29T16:33:09.370Z,98500.66
2023-01-29T16:35:56.318Z,98498.03
2023-01-29T16:38:49.528Z,98499.69
2023-01-29T16:41:50.124Z,98491.81
2023-01-29T16:44:36.964Z,98468.19
2023-01-29T16:47:33.271Z,98463.91
2023-01-29T16:50:55.310Z,98453.41
2023-01-29T16:53:42.561Z,98408.44
2023-01-29T16:56:29.532Z,98432.41
2023-01-29T16:59:17.037Z,98429.78
2023-01-29T17:02:04.034Z,98415.78
2023-01-29T17:04:50.888Z,98395.00
2023-01-29T17:07:38.568Z,98389.56
2023-01-29T17:10:27.177Z,98379.91
2023-01-29T17:13:18.681Z,98358.91
2023-01-29T17:16:06.709Z,98343.06
2023-01-29T17:18:53.668Z,98327.41
2023-01-29T17:21:40.638Z,98329.09
2023-01-29T17:24:27.548Z,98323.84
2023-01-29T17:27:14.773Z,98308.94
2023-01-29T17:30:01.653Z,98305.38
2023-01-29T17:32:48.668Z,98282.22
2023-01-29T17:35:36.418Z,98289.53
2023-01-29T17:38:26.463Z,98275.47
2023-01-29T17:41:18.112Z,98258.03
2023-01-29T17:44:05.345Z,98244.91
2023-01-29T17:46:52.474Z,98216.16
2023-01-29T17:49:44.170Z,98234.78
2023-01-29T17:52:31.009Z,98249.31
2023-01-29T17:55:18.398Z,98238.72
2023-01-29T17:58:05.458Z,98233.38
2023-01-29T18:00:52.457Z,98227.28
2023-01-29T18:03:39.877Z,98190.75
2023-01-29T18:06:28.740Z,98200.19
2023-01-29T18:09:15.866Z,98186.22
2023-01-29T18:12:03.532Z,98182.69
2023-01-29T18:14:50.444Z,98161.50
2023-01-29T18:17:37.409Z,98165.97
2023-01-29T18:20:36.577Z,98113.34
2023-01-29T18:23:24.347Z,98146.66
2023-01-29T18:26:11.350Z,98130.81
2023-01-29T18:28:58.319Z,98110.28
2023-01-29T18:31:45.262Z,98110.75
2023-01-29T18:34:32.376Z,98093.34
2023-01-29T18:37:19.432Z,98083.56
2023-01-29T18:40:06.210Z,98082.72
2023-01-29T18:42:53.397Z,98056.69
2023-01-29T18:45:40.498Z,98060.78
2023-01-29T18:48:27.660Z,98043.16
2023-01-29T18:51:14.770Z,98032.66
2023-01-29T18:54:01.684Z,98017.94
2023-01-29T18:57:13.296Z,98015.84
2023-01-29T18:59:55.554Z,98001.06
2023-01-29T19:02:42.623Z,97938.31
2023-01-29T19:05:29.810Z,97917.00
2023-01-29T19:08:16.776Z,97976.47
2023-01-29T19:11:03.649Z,97961.69
2023-01-29T19:13:54.408Z,97962.41
2023-01-29T19:16:41.398Z,97932.69
2023-01-29T19:19:28.426Z,97944.78
2023-01-29T19:22:15.454Z,97936.03
2023-01-29T19:25:02.561Z,97916.97
2023-01-29T19:27:49.514Z,97907.06
2023-01-29T19:30:36.728Z,97910.66
2023-01-29T19:33:23.917Z,97892.38
2023-01-29T19:36:10.942Z,97886.91
2023-01-29T19:38:57.932Z,97880.72
2023-01-29T19:41:44.864Z,97875.47
2023-01-29T19:44:32.362Z,97858.03
2023-01-29T19:47:19.426Z,97811.75
2023-01-29T19:50:06.800Z,97843.75
2023-01-29T19:52:53.788Z,97835.16
2023-01-29T19:55:41.043Z,97814.81
2023-01-29T19:58:27.953Z,97811.84
2023-01-29T20:01:23.041Z,97820.84
2023-01-29T20:04:11.272Z,97805.31
2023-01-29T20:06:58.433Z,97800.59
2023-01-29T20:09:45.386Z,97781.59
2023-01-29T20:12:32.430Z,97782.13
2023-01-29T20:15:19.450Z,97770.75
2023-01-29T20:18:06.579Z,97772.44
2023-01-29T20:20:53.605Z,97758.38
2023-01-29T20:23:40.899Z,97749.66
2023-01-29T20:26:31.077Z,97662.72
2023-01-29T20:29:18.033Z,97690.41
2023-01-29T20:32:04.836Z,97725.09
2023-01-29T20:34:52.390Z,97688.69
2023-01-29T20:37:39.856Z,97711.13
2023-01-29T20:40:27.343Z,97679.59
2023-01-29T20:43:14.587Z,97682.13
2023-01-29T20:46:01.912Z,97668.16
2023-01-29T20:48:49.573Z,97663.75
2023-01-29T20:51:37.336Z,97658.59
2023-01-29T20:54:24.252Z,97650.72
2023-01-29T20:57:11.326Z,97649.03
2023-01-29T20:59:58.166Z,97637.72
2023-01-29T21:02:45.211Z,97629.84
2023-01-29T21:05:33.142Z,97615.88
2023-01-29T21:08:20.050Z,97608.00
2023-01-29T21:11:09.341Z,97578.47
2023-01-29T21:13:56.647Z,97523.47
2023-01-29T21:16:44.536Z,97581.84
2023-01-29T21:19:33.403Z,97576.72
2023-01-29T21:22:20.278Z,97567.06
2023-01-29T21:25:07.295Z,97568.72
2023-01-29T21:27:54.149Z,97557.81
2023-01-29T21:30:41.564Z,97555.72
2023-01-29T21:33:28.494Z,97539.09
2023-01-29T21:36:19.513Z,97521.09
2023-01-29T21:39:06.373Z,97527.56
2023-01-29T21:41:52.351Z,97506.78
2023-01-29T21:44:39.217Z,97521.34
2023-01-29T21:47:26.493Z,97517.78
2023-01-29T21:50:13.367Z,97509.06
2023-01-29T21:53:01.587Z,97502.00
2023-01-29T21:55:48.689Z,97464.28
2023-01-29T21:58:35.649Z,97409.81
2023-01-29T22:01:37.585Z,97469.59
2023-01-29T22:04:25.998Z,97463.38
2023-01-29T22:07:12.975Z,97451.09
2023-01-29T22:10:00.380Z,97439.13
2023-01-29T22:12:47.564Z,97443.31
2023-01-29T22:15:35.290Z,97425.16
2023-01-29T22:18:22.152Z,97457.88
2023-01-29T22:21:16.093Z,97461.47
2023-01-29T22:24:02.946Z,97457.06
2023-01-29T22:26:49.996Z,97450.97
2023-01-29T22:29:37.520Z,97451.81
2023-01-29T22:32:26.294Z,97440.34
2023-01-29T22:35:13.191Z,97436.75
2023-01-29T22:38:00.176Z,97424.59
2023-01-29T22:40:47.070Z,97420.19
2023-01-29T22:43:33.985Z,97416.59
2023-01-29T22:46:20.962Z,97357.84
2023-01-29T22:49:07.889Z,97402.50
2023-01-29T22:51:54.913Z,97397.25
2023-01-29T22:54:41.986Z,97398.09
2023-01-29T22:57:34.587Z,97377.94
2023-01-29T23:00:21.813Z,97372.69
2023-01-29T23:03:09.509Z,97368.25
2023-01-29T23:05:56.523Z,97373.38
2023-01-29T23:08:43.424Z,97365.50
2023-01-29T23:11:35.097Z,97356.69
2023-01-29T23:14:21.893Z,97303.69
2023-01-29T23:17:08.894Z,97338.44
2023-01-29T23:19:56.123Z,97320.19
2023-01-29T23:22:43.350Z,97334.72
2023-01-29T23:25:30.263Z,97318.00
2023-01-29T23:28:17.308Z,97323.16
2023-01-29T23:31:04.265Z,97312.53
2023-01-29T23:33:51.474Z,97306.44
2023-01-29T23:36:38.384Z,97308.97
2023-01-29T23:39:25.562Z,97316.84
2023-01-29T23:42:12.418Z,97305.38
2023-01-29T23:44:59.487Z,97261.81
2023-01-29T23:47:46.383Z,97290.81
2023-01-29T23:50:33.643Z,97286.84
2023-01-29T23:53:20.565Z,97290.44
2023-01-29T23:56:22.545Z,97265.97
2023-01-29T23:59:13.412Z,97269.56
